createdAt,value
2022-10-15T00:01:26.435Z,7.91
2022-10-15T00:03:54.016Z,7.98
2022-10-15T00:06:21.980Z,7.67
2022-10-15T00:08:49.419Z,7.75
2022-10-15T00:11:19.166Z,7.70
2022-10-15T00:13:46.599Z,7.66
2022-10-15T00:16:16.268Z,7.49
2022-10-15T00:18:44.993Z,7.65
2022-10-15T00:21:13.215Z,7.43
2022-10-15T00:23:40.740Z,7.28
2022-10-15T00:26:10.910Z,7.24
2022-10-15T00:28:38.669Z,7.27
2022-10-15T00:31:07.487Z,7.24
2022-10-15T00:33:34.994Z,7.20
2022-10-15T00:36:03.306Z,7.11
2022-10-15T00:38:30.836Z,7.09
2022-10-15T00:40:59.211Z,7.10
2022-10-15T00:43:38.716Z,7.15
2022-10-15T00:46:06.707Z,7.14
2022-10-15T00:48:35.799Z,6.96
2022-10-15T00:51:03.733Z,6.95
2022-10-15T00:53:31.216Z,6.87
2022-10-15T00:55:58.692Z,6.90
2022-10-15T00:58:28.505Z,7.00
2022-10-15T01:00:56.077Z,7.00
2022-10-15T01:03:23.663Z,7.02
2022-10-15T01:05:51.386Z,6.91
2022-10-15T01:08:18.884Z,7.03
2022-10-15T01:11:05.060Z,6.97
2022-10-15T01:13:39.123Z,6.76
2022-10-15T01:16:16.341Z,6.77
2022-10-15T01:18:46.340Z,6.68
2022-10-15T01:21:14.313Z,6.72
2022-10-15T01:24:02.249Z,6.76
2022-10-15T01:26:42.812Z,6.76
2022-10-15T01:29:29.720Z,6.79
2022-10-15T01:32:00.171Z,6.87
2022-10-15T01:34:36.680Z,7.01
2022-10-15T01:37:07.637Z,6.99
2022-10-15T01:39:38.122Z,6.94
2022-10-15T01:42:25.834Z,6.99
2022-10-15T01:45:13.667Z,7.15
2022-10-15T01:48:04.154Z,7.12
2022-10-15T01:50:32.596Z,7.14
2022-10-15T01:53:00.177Z,7.08
2022-10-15T01:55:27.892Z,7.25
2022-10-15T01:57:56.398Z,7.16
2022-10-15T02:00:25.238Z,7.17
2022-10-15T02:02:52.835Z,7.00
2022-10-15T02:05:21.815Z,6.91
2022-10-15T02:07:55.494Z,6.95
2022-10-15T02:10:32.822Z,7.18
2022-10-15T02:13:00.208Z,7.18
2022-10-15T02:15:31.439Z,7.37
2022-10-15T02:18:00.915Z,7.16
2022-10-15T02:20:30.273Z,7.00
2022-10-15T02:23:06.196Z,7.00
2022-10-15T02:25:33.907Z,6.93
2022-10-15T02:28:01.458Z,6.85
2022-10-15T02:30:29.078Z,6.88
2022-10-15T02:32:56.802Z,7.01
2022-10-15T02:35:24.298Z,6.98
2022-10-15T02:37:52.200Z,6.89
2022-10-15T02:40:27.352Z,6.83
2022-10-15T02:42:55.726Z,6.93
2022-10-15T02:45:23.404Z,6.93
2022-10-15T02:47:51.367Z,6.76
2022-10-15T02:50:19.430Z,6.66
2022-10-15T02:52:48.189Z,6.70
2022-10-15T02:55:16.031Z,6.66
2022-10-15T02:57:43.851Z,6.60
2022-10-15T03:00:11.537Z,6.67
2022-10-15T03:02:41.411Z,6.64
2022-10-15T03:05:09.298Z,6.45
2022-10-15T03:07:37.951Z,6.63
2022-10-15T03:10:05.659Z,6.56
2022-10-15T03:12:33.476Z,6.58
2022-10-15T03:15:00.859Z,6.51
2022-10-15T03:17:29.552Z,6.30
2022-10-15T03:19:58.004Z,6.38
2022-10-15T03:22:25.410Z,6.41
2022-10-15T03:24:54.248Z,6.50
2022-10-15T03:27:27.299Z,6.21
2022-10-15T03:29:55.111Z,6.37
2022-10-15T03:32:25.064Z,6.32
2022-10-15T03:34:52.976Z,6.24
2022-10-15T03:37:21.700Z,6.29
2022-10-15T03:39:49.560Z,6.26
2022-10-15T03:42:19.109Z,6.31
2022-10-15T03:44:47.146Z,6.10
2022-10-15T03:47:20.629Z,6.19
2022-10-15T03:49:49.739Z,6.09
2022-10-15T03:52:18.111Z,6.09
2022-10-15T03:54:47.514Z,6.21
2022-10-15T03:57:18.191Z,6.29
2022-10-15T03:59:50.822Z,6.15
2022-10-15T04:02:19.451Z,6.14
2022-10-15T04:04:47.026Z,6.28
2022-10-15T04:07:16.763Z,6.16
2022-10-15T04:09:44.046Z,6.28
2022-10-15T04:12:28.161Z,6.39
2022-10-15T04:15:00.112Z,6.46
2022-10-15T04:17:29.596Z,6.42
2022-10-15T04:19:58.340Z,6.54
2022-10-15T04:22:26.981Z,6.20
2022-10-15T04:24:59.136Z,6.21
2022-10-15T04:27:28.624Z,6.29
2022-10-15T04:30:05.955Z,6.36
2022-10-15T04:32:33.823Z,6.35
2022-10-15T04:35:01.573Z,6.85
2022-10-15T04:37:48.090Z,6.52
2022-10-15T04:40:16.426Z,6.55
2022-10-15T04:42:43.800Z,6.62
2022-10-15T04:45:12.147Z,6.52
2022-10-15T04:47:41.089Z,6.58
2022-10-15T04:50:12.085Z,6.43
2022-10-15T04:53:17.729Z,6.84
2022-10-15T04:55:49.026Z,6.56
2022-10-15T04:58:16.781Z,6.58
2022-10-15T05:00:44.504Z,6.63
2022-10-15T05:03:37.476Z,6.64
2022-10-15T05:06:14.140Z,6.58
2022-10-15T05:08:44.768Z,7.09
2022-10-15T05:11:25.285Z,6.86
2022-10-15T05:13:56.620Z,6.80
2022-10-15T05:16:26.261Z,6.81
2022-10-15T05:18:59.180Z,7.07
2022-10-15T05:21:27.067Z,6.95
2022-10-15T05:23:58.342Z,7.03
2022-10-15T05:27:04.347Z,6.98
2022-10-15T05:29:35.824Z,7.22
2022-10-15T05:32:03.300Z,7.34
2022-10-15T05:34:31.064Z,7.71
2022-10-15T05:37:13.226Z,7.87
2022-10-15T05:39:42.618Z,7.64
2022-10-15T05:42:11.335Z,7.72
2022-10-15T05:44:42.471Z,7.85
2022-10-15T05:47:12.051Z,7.85
2022-10-15T05:49:42.130Z,7.87
2022-10-15T05:52:17.448Z,7.92
2022-10-15T05:55:11.378Z,8.08
2022-10-15T05:57:39.190Z,8.14
2022-10-15T06:00:06.782Z,8.36
2022-10-15T06:02:42.059Z,8.61
2022-10-15T06:05:09.631Z,8.41
2022-10-15T06:07:37.083Z,8.42
2022-10-15T06:10:05.716Z,8.58
2022-10-15T06:12:35.573Z,8.64
2022-10-15T06:15:03.062Z,8.90
2022-10-15T06:17:30.657Z,9.18
2022-10-15T06:19:59.541Z,9.16
2022-10-15T06:22:30.263Z,9.02
2022-10-15T06:24:57.847Z,9.12
2022-10-15T06:27:26.257Z,9.15
2022-10-15T06:29:54.089Z,9.30
2022-10-15T06:32:21.933Z,9.34
2022-10-15T06:34:50.200Z,9.43
2022-10-15T06:37:17.723Z,9.53
2022-10-15T06:39:46.854Z,9.68
2022-10-15T06:42:14.310Z,9.79
2022-10-15T06:44:41.743Z,9.97
2022-10-15T06:47:09.347Z,9.89
2022-10-15T06:49:36.715Z,9.94
2022-10-15T06:52:04.301Z,10.22
2022-10-15T06:54:31.578Z,10.40
2022-10-15T06:56:59.304Z,10.41
2022-10-15T06:59:26.816Z,10.50
2022-10-15T07:01:55.637Z,10.42
2022-10-15T07:04:23.567Z,10.73
2022-10-15T07:06:51.657Z,10.74
2022-10-15T07:09:21.436Z,10.56
2022-10-15T07:11:48.842Z,10.92
2022-10-15T07:14:16.304Z,11.06
2022-10-15T07:16:45.626Z,10.91
2022-10-15T07:19:12.973Z,11.10
2022-10-15T07:21:40.599Z,11.25
2022-10-15T07:24:08.120Z,11.82
2022-10-15T07:26:36.771Z,14.73
2022-10-15T07:29:04.569Z,17.51
2022-10-15T07:31:32.547Z,19.49
2022-10-15T07:34:00.023Z,21.16
2022-10-15T07:36:27.900Z,20.32
2022-10-15T07:38:55.455Z,21.64
2022-10-15T07:41:23.662Z,20.94
2022-10-15T07:43:54.148Z,22.35
2022-10-15T07:46:22.200Z,23.14
2022-10-15T07:48:55.707Z,23.31
2022-10-15T07:51:23.481Z,22.61
2022-10-15T07:53:50.810Z,23.78
2022-10-15T07:56:18.196Z,23.73
2022-10-15T07:58:52.020Z,25.09
2022-10-15T08:01:20.131Z,23.32
2022-10-15T08:03:48.019Z,24.89
2022-10-15T08:06:16.388Z,24.56
2022-10-15T08:08:44.061Z,23.27
2022-10-15T08:11:12.552Z,22.57
2022-10-15T08:13:42.226Z,24.37
2022-10-15T08:16:11.694Z,24.03
2022-10-15T08:18:39.309Z,23.75
2022-10-15T08:21:07.003Z,24.51
2022-10-15T08:23:35.580Z,24.55
2022-10-15T08:26:03.239Z,24.00
2022-10-15T08:28:31.176Z,22.72
2022-10-15T08:31:02.718Z,23.05
2022-10-15T08:33:33.494Z,21.88
2022-10-15T08:36:01.288Z,23.68
2022-10-15T08:38:30.219Z,22.47
2022-10-15T08:40:57.992Z,22.44
2022-10-15T08:43:26.664Z,21.01
2022-10-15T08:45:54.925Z,21.13
2022-10-15T08:48:25.380Z,21.44
2022-10-15T08:50:56.846Z,22.56
2022-10-15T08:53:24.344Z,22.59
2022-10-15T08:55:55.839Z,22.67
2022-10-15T08:58:36.963Z,22.31
2022-10-15T09:01:18.033Z,22.18
2022-10-15T09:03:48.544Z,21.02
2022-10-15T09:06:18.532Z,20.83
2022-10-15T09:08:46.312Z,20.26
2022-10-15T09:11:18.912Z,20.44
2022-10-15T09:13:46.434Z,19.15
2022-10-15T09:16:28.004Z,18.90
2022-10-15T09:18:55.527Z,18.84
2022-10-15T09:21:24.924Z,18.51
2022-10-15T09:23:53.562Z,18.43
2022-10-15T09:26:26.944Z,18.34
2022-10-15T09:28:57.753Z,18.29
2022-10-15T09:31:27.048Z,18.48
2022-10-15T09:33:56.296Z,18.45
2022-10-15T09:36:34.199Z,18.11
2022-10-15T09:39:11.651Z,18.30
2022-10-15T09:41:41.947Z,18.69
2022-10-15T09:44:13.694Z,18.57
2022-10-15T09:46:45.750Z,18.26
2022-10-15T09:49:19.081Z,18.31
2022-10-15T09:51:52.144Z,18.48
2022-10-15T09:54:26.016Z,18.36
2022-10-15T09:56:54.661Z,17.93
2022-10-15T09:59:22.316Z,18.01
2022-10-15T10:02:10.125Z,18.52
2022-10-15T10:04:38.648Z,18.42
2022-10-15T10:07:09.673Z,18.48
2022-10-15T10:09:38.538Z,17.97
2022-10-15T10:12:06.845Z,18.17
2022-10-15T10:14:53.335Z,17.86
2022-10-15T10:17:21.616Z,18.02
2022-10-15T10:20:07.707Z,17.98
2022-10-15T10:22:47.765Z,17.87
2022-10-15T10:25:37.546Z,17.12
2022-10-15T10:28:14.188Z,17.63
2022-10-15T10:30:48.201Z,17.65
2022-10-15T10:33:15.798Z,17.92
2022-10-15T10:35:47.057Z,18.57
2022-10-15T10:38:21.376Z,18.61
2022-10-15T10:40:52.707Z,18.33
2022-10-15T10:43:27.464Z,17.92
2022-10-15T10:45:59.316Z,18.02
2022-10-15T10:48:47.026Z,17.59
2022-10-15T10:51:19.010Z,17.76
2022-10-15T10:53:59.332Z,18.01
2022-10-15T10:56:31.243Z,18.22
2022-10-15T10:58:59.905Z,18.30
2022-10-15T11:01:27.339Z,18.05
2022-10-15T11:03:54.947Z,17.86
2022-10-15T11:06:30.213Z,18.17
2022-10-15T11:09:04.913Z,17.84
2022-10-15T11:11:47.978Z,17.48
2022-10-15T11:14:25.412Z,17.59
2022-10-15T11:17:11.553Z,17.66
2022-10-15T11:22:37.361Z,17.64
2022-10-15T11:25:22.087Z,17.42
2022-10-15T11:27:57.481Z,17.65
2022-10-15T11:30:34.199Z,17.43
2022-10-15T11:33:07.596Z,17.75
2022-10-15T11:35:54.457Z,17.20
2022-10-15T11:38:35.755Z,17.20
2022-10-15T11:41:21.689Z,16.85
2022-10-15T11:43:58.220Z,16.90
2022-10-15T11:46:48.788Z,16.96
2022-10-15T11:49:22.369Z,17.05
2022-10-15T11:52:07.232Z,17.48
2022-10-15T11:54:40.600Z,17.80
2022-10-15T11:57:09.270Z,17.20
2022-10-15T11:59:36.801Z,17.35
2022-10-15T12:02:05.526Z,17.19
2022-10-15T12:04:36.046Z,17.65
2022-10-15T12:07:04.976Z,16.93
2022-10-15T12:09:34.422Z,16.45
2022-10-15T12:12:11.036Z,16.87
2022-10-15T12:15:10.975Z,17.14
2022-10-15T12:17:44.362Z,16.93
2022-10-15T12:20:12.753Z,17.06
2022-10-15T12:22:41.619Z,16.86
2022-10-15T12:25:29.314Z,16.97
2022-10-15T12:28:00.424Z,16.76
2022-10-15T12:30:28.667Z,16.59
2022-10-15T12:32:56.026Z,16.53
2022-10-15T12:35:36.463Z,16.68
2022-10-15T12:38:11.249Z,16.58
2022-10-15T12:40:38.978Z,16.88
2022-10-15T12:43:14.244Z,16.61
2022-10-15T12:46:11.113Z,16.16
2022-10-15T12:48:42.603Z,16.17
2022-10-15T12:51:16.279Z,16.31
2022-10-15T12:53:44.286Z,16.34
2022-10-15T12:56:11.617Z,16.01
2022-10-15T12:58:41.701Z,16.14
2022-10-15T13:01:15.306Z,15.84
2022-10-15T13:03:44.214Z,15.71
2022-10-15T13:06:14.449Z,15.82
2022-10-15T13:08:45.742Z,15.66
2022-10-15T13:11:31.135Z,15.27
2022-10-15T13:14:42.616Z,15.63
2022-10-15T13:17:20.270Z,15.74
2022-10-15T13:19:50.027Z,15.27
2022-10-15T13:22:24.757Z,15.50
2022-10-15T13:24:52.818Z,15.65
2022-10-15T13:27:32.119Z,15.68
2022-10-15T13:30:00.735Z,15.31
2022-10-15T13:32:29.156Z,15.33
2022-10-15T13:34:57.649Z,15.14
2022-10-15T13:37:27.165Z,14.77
2022-10-15T13:39:55.124Z,14.92
2022-10-15T13:42:23.393Z,15.03
2022-10-15T13:45:01.720Z,14.99
2022-10-15T13:47:34.451Z,14.69
2022-10-15T13:50:21.160Z,14.74
2022-10-15T13:52:50.609Z,14.92
2022-10-15T13:55:24.757Z,14.72
2022-10-15T13:57:53.005Z,14.87
2022-10-15T14:00:23.250Z,14.76
2022-10-15T14:03:09.651Z,14.59
2022-10-15T14:05:37.355Z,14.67
2022-10-15T14:08:04.791Z,14.69
2022-10-15T14:10:32.652Z,14.69
2022-10-15T14:13:00.219Z,14.65
2022-10-15T14:15:41.364Z,14.65
2022-10-15T14:18:09.142Z,14.57
2022-10-15T14:20:37.099Z,14.55
2022-10-15T14:23:04.533Z,14.32
2022-10-15T14:25:31.989Z,14.30
2022-10-15T14:27:59.374Z,14.16
2022-10-15T14:30:28.077Z,14.27
2022-10-15T14:32:55.831Z,14.26
2022-10-15T14:35:30.223Z,14.13
2022-10-15T14:38:03.834Z,14.19
2022-10-15T14:40:31.416Z,13.90
2022-10-15T14:43:03.807Z,14.02
2022-10-15T14:45:32.244Z,14.06
2022-10-15T14:48:00.481Z,13.97
2022-10-15T14:50:30.243Z,13.91
2022-10-15T14:52:57.612Z,13.95
2022-10-15T14:55:25.267Z,13.95
2022-10-15T14:57:53.047Z,13.84
2022-10-15T15:00:27.054Z,13.81
2022-10-15T15:02:56.142Z,13.81
2022-10-15T15:05:26.831Z,13.69
2022-10-15T15:07:54.485Z,13.65
2022-10-15T15:10:21.896Z,13.70
2022-10-15T15:12:51.848Z,13.67
2022-10-15T15:15:21.732Z,13.55
2022-10-15T15:17:49.416Z,13.53
2022-10-15T15:20:20.270Z,13.34
2022-10-15T15:22:50.440Z,13.39
2022-10-15T15:25:24.676Z,13.27
2022-10-15T15:27:52.400Z,13.04
2022-10-15T15:30:20.579Z,13.22
2022-10-15T15:32:49.386Z,13.23
2022-10-15T15:35:19.884Z,13.12
2022-10-15T15:37:52.206Z,13.22
2022-10-15T15:40:20.439Z,13.09
2022-10-15T15:42:49.371Z,12.87
2022-10-15T15:45:18.611Z,13.02
2022-10-15T15:47:46.226Z,12.88
2022-10-15T15:50:14.226Z,12.94
2022-10-15T15:52:43.636Z,12.97
2022-10-15T15:55:11.385Z,12.86
2022-10-15T15:57:38.706Z,12.88
2022-10-15T16:00:06.769Z,12.87
2022-10-15T16:02:34.555Z,12.93
2022-10-15T16:05:02.127Z,12.45
2022-10-15T16:07:29.958Z,12.19
2022-10-15T16:09:57.517Z,12.38
2022-10-15T16:12:26.436Z,12.30
2022-10-15T16:14:54.728Z,12.11
2022-10-15T16:17:28.513Z,12.36
2022-10-15T16:20:16.918Z,12.08
2022-10-15T16:22:45.339Z,12.40
2022-10-15T16:25:12.716Z,12.42
2022-10-15T16:28:02.046Z,12.41
2022-10-15T16:30:29.624Z,12.20
2022-10-15T16:32:58.062Z,12.36
2022-10-15T16:35:25.701Z,11.78
2022-10-15T16:37:56.221Z,11.77
2022-10-15T16:40:24.756Z,11.85
2022-10-15T16:42:52.096Z,11.74
2022-10-15T16:45:19.471Z,11.75
2022-10-15T16:47:46.928Z,11.73
2022-10-15T16:50:14.704Z,11.69
2022-10-15T16:52:42.112Z,11.74
2022-10-15T16:55:14.080Z,11.89
2022-10-15T16:57:42.979Z,11.87
2022-10-15T17:00:10.667Z,11.63
2022-10-15T17:02:38.277Z,11.74
2022-10-15T17:05:06.172Z,11.32
2022-10-15T17:07:36.308Z,11.54
2022-10-15T17:10:07.450Z,11.34
2022-10-15T17:12:36.033Z,11.49
2022-10-15T17:15:03.636Z,11.19
2022-10-15T17:17:31.107Z,11.19
2022-10-15T17:19:58.485Z,11.23
2022-10-15T17:22:26.529Z,11.21
2022-10-15T17:24:54.654Z,11.16
2022-10-15T17:27:22.164Z,11.05
2022-10-15T17:29:50.127Z,11.22
2022-10-15T17:32:17.715Z,11.30
2022-10-15T17:34:45.287Z,11.47
2022-10-15T17:37:14.410Z,11.46
2022-10-15T17:39:41.873Z,11.42
2022-10-15T17:42:09.221Z,11.43
2022-10-15T17:44:36.627Z,11.27
2022-10-15T17:47:04.222Z,11.26
2022-10-15T17:49:31.938Z,11.24
2022-10-15T17:52:00.708Z,11.23
2022-10-15T17:54:31.260Z,11.28
2022-10-15T17:56:59.292Z,11.21
2022-10-15T17:59:26.751Z,11.07
2022-10-15T18:01:59.283Z,10.87
2022-10-15T18:04:28.186Z,10.94
2022-10-15T18:06:55.921Z,11.02
2022-10-15T18:09:27.022Z,11.07
2022-10-15T18:12:01.859Z,11.05
2022-10-15T18:14:32.307Z,11.07
2022-10-15T18:16:59.978Z,11.03
2022-10-15T18:19:29.311Z,11.03
2022-10-15T18:21:57.141Z,10.82
2022-10-15T18:24:24.611Z,10.91
2022-10-15T18:26:52.758Z,10.73
2022-10-15T18:29:20.160Z,10.73
2022-10-15T18:31:53.391Z,10.76
2022-10-15T18:34:24.120Z,10.46
2022-10-15T18:36:51.682Z,10.16
2022-10-15T18:39:20.315Z,10.08
2022-10-15T18:41:47.881Z,9.89
2022-10-15T18:44:16.895Z,9.66
2022-10-15T18:46:45.150Z,9.91
2022-10-15T18:49:13.415Z,9.85
2022-10-15T18:51:40.900Z,9.75
2022-10-15T18:54:08.901Z,9.57
2022-10-15T18:56:36.615Z,9.46
2022-10-15T18:59:04.488Z,9.56
2022-10-15T19:01:35.565Z,9.44
2022-10-15T19:04:10.405Z,9.58
2022-10-15T19:06:40.503Z,9.64
2022-10-15T19:09:09.082Z,9.57
2022-10-15T19:11:37.048Z,9.26
2022-10-15T19:14:06.719Z,8.92
2022-10-15T19:16:34.501Z,9.02
2022-10-15T19:19:16.748Z,8.84
2022-10-15T19:21:44.489Z,8.67
2022-10-15T19:24:13.555Z,8.67
2022-10-15T19:26:41.010Z,8.69
2022-10-15T19:29:09.098Z,8.69
2022-10-15T19:31:39.860Z,8.62
2022-10-15T19:34:07.703Z,8.52
2022-10-15T19:36:37.094Z,8.30
2022-10-15T19:39:07.844Z,8.35
2022-10-15T19:41:39.338Z,8.29
2022-10-15T19:44:08.401Z,8.23
2022-10-15T19:46:36.215Z,8.42
2022-10-15T19:49:04.154Z,8.29
2022-10-15T19:51:33.066Z,8.33
2022-10-15T19:54:00.834Z,8.13
2022-10-15T19:56:31.983Z,8.16
2022-10-15T19:59:00.333Z,8.31
2022-10-15T20:01:28.866Z,8.00
2022-10-15T20:04:03.257Z,8.04
2022-10-15T20:06:35.342Z,8.11
2022-10-15T20:09:02.762Z,8.02
2022-10-15T20:11:30.264Z,7.87
2022-10-15T20:13:59.502Z,7.95
2022-10-15T20:16:27.615Z,7.70
2022-10-15T20:18:59.038Z,7.84
2022-10-15T20:21:26.414Z,7.82
2022-10-15T20:23:54.048Z,7.52
2022-10-15T20:26:24.039Z,7.58
2022-10-15T20:28:54.236Z,7.37
2022-10-15T20:31:21.957Z,7.53
2022-10-15T20:33:50.387Z,7.38
2022-10-15T20:36:21.364Z,7.31
2022-10-15T20:38:50.601Z,7.28
2022-10-15T20:41:18.390Z,7.19
2022-10-15T20:43:46.062Z,7.17
2022-10-15T20:46:14.069Z,7.35
2022-10-15T20:48:44.310Z,7.18
2022-10-15T20:51:13.729Z,7.10
2022-10-15T20:53:42.779Z,7.02
2022-10-15T20:56:10.275Z,7.06
2022-10-15T20:58:38.020Z,7.15
2022-10-15T21:01:08.106Z,7.18
2022-10-15T21:03:35.770Z,7.14
2022-10-15T21:06:04.069Z,7.00
2022-10-15T21:08:31.618Z,6.96
2022-10-15T21:11:03.347Z,7.16
2022-10-15T21:13:32.457Z,7.49
2022-10-15T21:16:00.610Z,7.42
2022-10-15T21:18:28.059Z,7.56
2022-10-15T21:20:55.720Z,7.52
2022-10-15T21:23:23.253Z,7.71
2022-10-15T21:25:50.887Z,7.69
2022-10-15T21:28:18.276Z,7.77
2022-10-15T21:30:46.318Z,7.84
2022-10-15T21:33:13.653Z,7.95
2022-10-15T21:35:41.382Z,8.20
2022-10-15T21:38:08.944Z,8.06
2022-10-15T21:40:37.274Z,7.87
2022-10-15T21:43:04.731Z,8.14
2022-10-15T21:45:32.107Z,8.10
2022-10-15T21:47:59.478Z,8.32
2022-10-15T21:50:26.987Z,8.26
2022-10-15T21:52:54.391Z,8.34
2022-10-15T21:55:21.839Z,8.08
2022-10-15T21:57:49.170Z,7.81
2022-10-15T22:00:16.788Z,7.85
2022-10-15T22:02:48.735Z,7.61
2022-10-15T22:05:16.104Z,7.85
2022-10-15T22:07:43.499Z,8.00
2022-10-15T22:10:11.068Z,7.74
2022-10-15T22:12:38.457Z,7.90
2022-10-15T22:15:06.158Z,8.08
2022-10-15T22:17:33.691Z,8.19
2022-10-15T22:20:01.615Z,8.03
2022-10-15T22:22:29.350Z,7.87
2022-10-15T22:24:59.675Z,8.04
2022-10-15T22:27:28.332Z,7.62
2022-10-15T22:29:56.279Z,7.92
2022-10-15T22:32:23.972Z,7.51
2022-10-15T22:34:51.695Z,7.58
2022-10-15T22:37:19.020Z,7.59
2022-10-15T22:39:46.397Z,7.70
2022-10-15T22:42:13.844Z,7.43
2022-10-15T22:44:41.393Z,7.78
2022-10-15T22:47:09.886Z,7.61
2022-10-15T22:49:37.615Z,7.67
2022-10-15T22:52:05.902Z,7.34
2022-10-15T22:54:33.410Z,7.26
2022-10-15T22:57:01.894Z,7.24
2022-10-15T22:59:32.773Z,7.23
2022-10-15T23:02:00.257Z,6.98
2022-10-15T23:04:28.001Z,7.08
2022-10-15T23:06:55.978Z,7.26
2022-10-15T23:09:25.838Z,7.23
2022-10-15T23:11:53.273Z,7.06
2022-10-15T23:14:20.792Z,7.10
2022-10-15T23:16:49.266Z,7.02
2022-10-15T23:19:17.685Z,7.21
2022-10-15T23:21:46.375Z,7.19
2022-10-15T23:24:14.051Z,7.03
2022-10-15T23:26:41.508Z,7.05
2022-10-15T23:29:10.623Z,7.07
2022-10-15T23:31:38.015Z,7.16
2022-10-15T23:34:05.593Z,6.93
2022-10-15T23:36:33.153Z,7.14
2022-10-15T23:39:02.272Z,7.03
2022-10-15T23:41:31.383Z,7.28
2022-10-15T23:43:58.780Z,6.91
2022-10-15T23:46:26.202Z,6.98
2022-10-15T23:48:53.739Z,7.23
2022-10-15T23:51:22.169Z,7.24
2022-10-15T23:53:50.941Z,7.08
2022-10-15T23:56:18.266Z,6.93
2022-10-15T23:58:49.316Z,7.19
